Time;durP1;ratioP1;P1;durP2;ratioP2;P2;SDS_P1;SDS_P2;PMS_P1;PMS_P2;Temp;Humidity;BMP_temperature;BMP_pressure;BME280_temperature;BME280_humidity;BME280_pressure;Samples;Min_cycle;Max_cycle;Signal;HPM_P1;HPM_P2
2023/05/02 00:02:02;;;;;;;;;;;;;;;;;;5034900;28;19929;-84
2023/05/02 00:04:27;;;;;;;;;;;;;;;;;;5029712;28;19983;-84
2023/05/02 00:06:52;;;;;;;;;;;;;;;;;;5048487;28;20269;-83
2023/05/02 00:09:18;;;;;;;;;;;;;;;;;;5036336;28;19959;-84
2023/05/02 00:11:43;;;;;;;;;;;;;;;;;;5034903;28;19924;-84
2023/05/02 00:14:08;;;;;;;;;;;;;;;;;;5033645;28;19921;-84
2023/05/02 00:16:33;;;;;;;;;;;;;;;;;;5029410;28;20348;-84
2023/05/02 00:18:58;;;;;;;;;;;;;;;;;;5026099;28;19921;-84
2023/05/02 00:21:23;;;;;;;;;;;;;;;;;;5029525;28;19918;-84
2023/05/02 00:23:48;;;;;;;;;;;;;;;;;;5031348;28;19982;-84
2023/05/02 00:26:13;;;;;;;;;;;;;;;;;;5027335;28;19974;-84
2023/05/02 00:28:39;;;;;;;;;;;;;;;;;;5035242;28;19921;-84
2023/05/02 00:31:04;;;;;;;;;;;;;;;;;;5031693;28;19924;-83
2023/05/02 00:33:29;;;;;;;;;;;;;;;;;;5033173;28;19921;-85
2023/05/02 00:35:54;;;;;;;;;;;;;;;;;;5032035;28;19932;-84
2023/05/02 00:38:19;;;;;;;;;;;;;;;;;;5023145;28;19917;-83
2023/05/02 00:40:44;;;;;;;;;;;;;;;;;;5024810;28;19956;-84
2023/05/02 00:43:10;;;;;;;;;;;;;;;;;;5024137;28;20064;-84
2023/05/02 00:45:35;;;;;;;;;;;;;;;;;;5033895;28;19968;-84
2023/05/02 00:48:00;;;;;;;;;;;;;;;;;;5033047;28;19932;-83
2023/05/02 00:50:25;;;;;;;;;;;;;;;;;;5030899;28;20029;-83
2023/05/02 00:52:50;;;;;;;;;;;;;;;;;;5022641;28;19921;-84
2023/05/02 00:55:15;;;;;;;;;;;;;;;;;;5039044;28;19922;-84
2023/05/02 00:57:40;;;;;;;;;;;;;;;;;;5031333;28;19967;-84
2023/05/02 01:00:06;;;;;;;;;;;;;;;;;;5032351;28;19921;-84
2023/05/02 01:02:31;;;;;;;;;;;;;;;;;;5038522;28;19924;-84
2023/05/02 01:04:56;;;;;;;;;;;;;;;;;;5038560;28;19922;-84
2023/05/02 01:07:28;;;;;;;;;;;;;;;;;;5034725;28;19925;-84
2023/05/02 01:09:53;;;;;;;;;;;;;;;;;;5033868;28;19917;-84
2023/05/02 01:12:19;;;;;;;;;;;;;;;;;;5039712;28;19983;-84
2023/05/02 01:14:44;;;;;;;;;;;;;;;;;;5038052;28;19921;-84
2023/05/02 01:17:09;;;;;;;;;;;;;;;;;;5033486;28;19952;-84
2023/05/02 01:19:35;;;;;;;;;;;;;;;;;;5035645;28;20028;-84
2023/05/02 01:22:00;;;;;;;;;;;;;;;;;;5039662;28;19917;-84
2023/05/02 01:24:25;;;;;;;;;;;;;;;;;;5039411;28;20316;-84
2023/05/02 01:26:51;;;;;;;;;;;;;;;;;;5039592;28;19928;-84
2023/05/02 01:29:16;;;;;;;;;;;;;;;;;;5034511;28;19925;-84
2023/05/02 01:31:41;;;;;;;;;;;;;;;;;;5032040;28;19924;-84
2023/05/02 01:34:06;;;;;;;;;;;;;;;;;;5037382;28;20392;-84
2023/05/02 01:36:31;;;;;;;;;;;;;;;;;;5031368;28;19971;-84
2023/05/02 01:38:56;;;;;;;;;;;;;;;;;;5028503;28;19984;-84
2023/05/02 01:41:21;;;;;;;;;;;;;;;;;;5026713;28;19955;-85
2023/05/02 01:43:47;;;;;;;;;;;;;;;;;;5022336;28;19943;-84
2023/05/02 01:46:14;;;;;;;;;;;;;;;;;;5025968;28;20023;-84
2023/05/02 01:48:39;;;;;;;;;;;;;;;;;;5036512;28;19999;-84
2023/05/02 01:51:04;;;;;;;;;;;;;;;;;;5031402;28;19917;-84
2023/05/02 01:53:29;;;;;;;;;;;;;;;;;;5030004;28;19925;-84
2023/05/02 01:55:55;;;;;;;;;;;;;;;;;;5026682;28;19921;-84
2023/05/02 01:58:20;;;;;;;;;;;;;;;;;;5027702;28;19924;-84
2023/05/02 02:00:45;;;;;;;;;;;;;;;;;;5034996;28;19948;-83
2023/05/02 02:03:10;;;;;;;;;;;;;;;;;;5028123;28;20176;-84
2023/05/02 02:05:35;;;;;;;;;;;;;;;;;;5031566;28;20062;-84
2023/05/02 02:08:00;;;;;;;;;;;;;;;;;;5037693;28;20282;-84
2023/05/02 02:10:26;;;;;;;;;;;;;;;;;;5039222;28;19924;-84
2023/05/02 02:12:51;;;;;;;;;;;;;;;;;;5034274;28;20329;-84
2023/05/02 02:15:16;;;;;;;;;;;;;;;;;;5039322;28;19979;-83
2023/05/02 02:17:42;;;;;;;;;;;;;;;;;;5037965;28;20012;-84
2023/05/02 02:20:07;;;;;;;;;;;;;;;;;;5032644;28;19956;-84
2023/05/02 02:22:32;;;;;;;;;;;;;;;;;;5028520;28;19928;-84
2023/05/02 02:24:57;;;;;;;;;;;;;;;;;;5030223;28;19917;-84
2023/05/02 02:27:22;;;;;;;;;;;;;;;;;;5030374;28;19921;-84
2023/05/02 02:29:47;;;;;;;;;;;;;;;;;;5019352;28;19917;-84
2023/05/02 02:32:12;;;;;;;;;;;;;;;;;;5031212;28;19917;-84
2023/05/02 02:34:37;;;;;;;;;;;;;;;;;;5033601;28;19917;-84
2023/05/02 02:37:03;;;;;;;;;;;;;;;;;;5025498;28;19925;-85
2023/05/02 02:39:28;;;;;;;;;;;;;;;;;;5037822;28;19917;-85
2023/05/02 02:41:53;;;;;;;;;;;;;;;;;;5034043;28;19924;-84
2023/05/02 02:44:18;;;;;;;;;;;;;;;;;;5027538;28;20276;-84
2023/05/02 02:46:43;;;;;;;;;;;;;;;;;;5029061;28;19925;-84
2023/05/02 02:49:08;;;;;;;;;;;;;;;;;;5034833;28;19921;-84
2023/05/02 02:51:45;;;;;;;;;;;;;;;9.60;nan;100749.25;5034994;28;19928;-84
2023/05/02 02:54:10;;;;;;;;;;;;;;;9.58;nan;100749.38;5036918;28;19928;-84
2023/05/02 02:56:38;;;;;;;;;;;;;;;9.54;nan;100753.28;5021179;28;19918;-84
2023/05/02 02:59:19;;;;;;;;;;;;;;;9.48;nan;100754.66;5037220;28;19924;-84
2023/05/02 03:01:47;;;;;;;;;;;;;;;9.46;nan;100753.13;5036216;28;19923;-84
2023/05/02 03:04:14;;;;;;;;;;;;;;;9.42;nan;100760.50;5024860;28;19924;-84
2023/05/02 03:06:40;;;;;;;;;;;;;;;9.34;nan;100757.72;5033339;28;20024;-84
2023/05/02 03:09:06;;;;;;;;;;;;;;;9.27;nan;100756.59;5028898;28;20305;-84
2023/05/02 03:11:31;;;;;;;;;;;;;;;9.24;nan;100757.72;5030156;28;19917;-84
2023/05/02 03:13:56;;;;;;;;;;;;;;;9.21;nan;100755.34;5030215;28;19921;-84
2023/05/02 03:16:30;;;;;;;;;;;;;;;9.20;nan;100758.13;5027984;28;19929;-83
2023/05/02 03:18:55;;;;;;;;;;;;;;;9.14;nan;100764.78;5029374;28;19921;-84
2023/05/02 03:21:20;;;;;;;;;;;;;;;9.07;nan;100777.69;5030608;28;19917;-84
2023/05/02 03:23:45;;;;;;;;;;;;;;;9.01;nan;100769.47;5034787;28;20438;-84
2023/05/02 03:26:11;;;;;;;;;;;;;;;8.96;nan;100772.50;5032572;28;19925;-84
2023/05/02 03:28:36;;;;;;;;;;;;;;;8.91;nan;100772.09;5021869;28;19933;-84
2023/05/02 03:31:01;;;;;;;;;;;;;;;8.87;nan;100778.63;5037143;28;19948;-84
2023/05/02 03:33:26;;;;;;;;;;;;;;;8.82;nan;100780.81;5038302;28;19949;-83
2023/05/02 03:35:55;;;;;;;;;;;;;;;8.77;nan;100775.97;5032285;28;19917;-84
2023/05/02 03:38:26;;;;;;;;;;;;;;;8.72;nan;100788.69;5037727;28;19929;-84
2023/05/02 03:40:51;;;;;;;;;;;;;;;8.68;nan;100789.94;5038509;28;20270;-84
2023/05/02 03:43:16;;;;;;;;;;;;;;;8.65;nan;100787.53;5046751;28;19944;-84
2023/05/02 03:45:44;;;;;;;;;;;;;;;8.61;nan;100794.91;5020498;28;19971;-84
2023/05/02 03:48:11;;;;;;;;;;;;;;;8.56;nan;100791.81;5033512;28;19929;-83
2023/05/02 03:50:36;;;;;;;;;;;;;;;8.53;nan;100802.59;5038324;28;20373;-84
2023/05/02 03:53:01;;;;;;;;;;;;;;;8.47;nan;100801.34;5031772;28;19921;-84
2023/05/02 03:55:27;;;;;;;;;;;;;;;8.44;nan;100804.25;5037368;28;19948;-84
2023/05/02 03:57:55;;;;;;;;;;;;;;;8.42;nan;100802.72;5027074;28;19925;-83
2023/05/02 04:00:20;;;;;;;;;;;;;;;8.44;nan;100809.53;5030912;28;19983;-84
2023/05/02 04:02:46;;;;;;;;;;;;;;;8.46;nan;100815.50;5028836;28;19929;-84
2023/05/02 04:05:11;;;;;;;;;;;;;;;8.46;nan;100817.28;5034856;28;19931;-84
2023/05/02 04:07:37;;;;;;;;;;;;;;;8.43;nan;100812.28;5038452;28;19921;-84
2023/05/02 04:10:02;;;;;;;;;;;;;;;8.44;nan;100814.78;5034032;28;19917;-84
2023/05/02 04:12:27;;;;;;;;;;;;;;;8.44;nan;100821.88;5035186;28;20004;-84
2023/05/02 04:14:53;;;;;;;;;;;;;;;8.46;nan;100828.69;5038879;28;19943;-84
2023/05/02 04:17:19;;;;;;;;;;;;;;;8.48;nan;100833.81;5031179;28;19925;-84
2023/05/02 04:19:45;;;;;;;;;;;;;;;8.52;nan;100844.94;5017868;28;19928;-84
2023/05/02 04:22:10;;;;;;;;;;;;;;;8.59;nan;100849.53;5036127;28;19929;-84
2023/05/02 04:24:35;;;;;;;;;;;;;;;8.66;nan;100855.13;5037065;28;20300;-84
2023/05/02 04:27:00;;;;;;;;;;;;;;;8.77;nan;100859.47;5032409;28;19917;-84
2023/05/02 04:29:25;;;;;;;;;;;;;;;8.86;nan;100863.97;5041663;28;19979;-84
2023/05/02 04:31:51;;;;;;;;;;;;;;;8.92;nan;100869.53;5044573;28;19932;-84
2023/05/02 04:34:16;;;;;;;;;;;;;;;9.04;nan;100874.72;5036543;28;20340;-84
2023/05/02 04:36:43;;;;;;;;;;;;;;;9.14;nan;100878.22;5042038;28;19986;-84
2023/05/02 04:39:09;;;;;;;;;;;;;;;9.22;nan;100874.91;5045482;28;20348;-84
2023/05/02 04:41:34;;;;;;;;;;;;;;;9.30;nan;100885.66;5035813;28;19922;-84
2023/05/02 04:43:59;;;;;;;;;;;;;;;9.40;nan;100883.88;5044560;28;19921;-84
2023/05/02 04:46:24;;;;;;;;;;;;;;;9.50;nan;100889.16;5043908;28;19929;-84
2023/05/02 04:48:51;;;;;;;;;;;;;;;9.62;nan;100881.97;5046626;28;19928;-84
2023/05/02 04:51:16;;;;;;;;;;;;;;;9.74;nan;100886.97;5036878;28;19929;-84
2023/05/02 04:53:41;;;;;;;;;;;;;;;9.87;nan;100897.28;5043899;28;19982;-84
2023/05/02 04:56:06;;;;;;;;;;;;;;;9.98;nan;100899.75;5042470;28;19921;-84
2023/05/02 04:58:35;;;;;;;;;;;;;;;10.07;nan;100899.91;5034953;28;20370;-84
2023/05/02 05:01:01;;;;;;;;;;;;;;;10.10;nan;100902.28;5037735;28;20389;-84
2023/05/02 05:03:27;;;;;;;;;;;;;;;10.12;nan;100897.69;5040858;28;19995;-84
2023/05/02 05:05:52;;;;;;;;;;;;;;;10.15;nan;100906.19;5043222;28;19989;-84
2023/05/02 05:08:17;;;;;;;;;;;;;;;10.22;nan;100906.44;5043084;28;19953;-84
2023/05/02 05:10:42;;;;;;;;;;;;;;;10.32;nan;100920.53;5043037;28;19989;-84
2023/05/02 05:13:12;;;;;;;;;;;;;;;10.47;nan;100918.28;5046314;28;19928;-84
2023/05/02 05:15:38;;;;;;;;;;;;;;;10.64;nan;100919.38;5045068;28;20011;-84
2023/05/02 05:18:03;;;;;;;;;;;;;;;10.84;nan;100933.38;5040410;28;19961;-85
2023/05/02 05:20:28;;;;;;;;;;;;;;;10.98;nan;100929.44;5038875;28;20039;-82
2023/05/02 05:22:55;;;;;;;;;;;;;;;11.07;nan;100933.03;5024522;28;19921;-84
2023/05/02 05:25:23;;;;;;;;;;;;;;;11.20;nan;100936.16;5040804;28;19921;-83
2023/05/02 05:27:51;;;;;;;;;;;;;;;11.38;nan;100938.88;5051597;28;19928;-83
2023/05/02 05:30:16;;;;;;;;;;;;;;;11.64;nan;100949.63;5019561;28;19921;-83
2023/05/02 05:32:41;;;;;;;;;;;;;;;11.84;nan;100952.97;5039922;28;19922;-82
2023/05/02 05:35:08;;;;;;;;;;;;;;;12.02;nan;100955.69;5054016;28;19949;-83
2023/05/02 05:37:36;;;;;;;;;;;;;;;12.11;nan;100968.88;5028140;28;20344;-83
2023/05/02 05:40:01;;;;;;;;;;;;;;;12.20;nan;100974.25;5039997;28;19944;-83
2023/05/02 05:42:26;;;;;;;;;;;;;;;12.25;nan;100964.00;5042369;28;19925;-83
2023/05/02 05:44:51;;;;;;;;;;;;;;;12.25;nan;100972.81;5038046;28;19949;-83
2023/05/02 05:47:23;;;;;;;;;;;;;;;12.16;nan;100978.19;5036398;28;20027;-83
2023/05/02 05:49:54;;;;;;;;;;;;;;;12.06;nan;100984.41;5033273;28;19921;-83
2023/05/02 05:52:20;;;;;;;;;;;;;;;12.05;nan;100985.38;5039454;28;19921;-83
2023/05/02 05:54:45;;;;;;;;;;;;;;;12.09;nan;100988.56;5041557;28;19972;-83
2023/05/02 05:57:10;;;;;;;;;;;;;;;12.20;nan;100985.69;5041892;28;19929;-83
2023/05/02 05:59:36;;;;;;;;;;;;;;;12.38;nan;100988.34;5042017;28;20496;-83
2023/05/02 06:02:04;;;;;;;;;;;;;;;12.45;nan;100986.75;5041295;28;19921;-83
2023/05/02 06:04:29;;;;;;;;;;;;;;;12.51;nan;100985.28;5040527;28;19925;-83
2023/05/02 06:06:55;;;;;;;;;;;;;;;12.59;nan;100990.69;5041026;28;20527;-83
2023/05/02 06:09:20;;;;;;;;;;;;;;;12.66;nan;100996.22;5042688;28;19939;-83
2023/05/02 06:11:48;;;;;;;;;;;;;;;12.74;nan;100990.97;5031044;28;20015;-84
2023/05/02 06:14:13;;;;;;;;;;;;;;;12.58;nan;101004.09;5031879;28;19928;-83
2023/05/02 06:16:38;;;;;;;;;;;;;;;12.60;nan;101004.78;5040262;28;20051;-83
2023/05/02 06:19:04;;;;;;;;;;;;;;;12.59;nan;101006.59;5035146;28;19929;-83
2023/05/02 06:21:30;;;;;;;;;;;;;;;12.69;nan;101015.28;5041075;28;19921;-83
2023/05/02 06:23:55;;;;;;;;;;;;;;;12.69;nan;101011.81;5039024;28;19932;-83
2023/05/02 06:26:21;;;;;;;;;;;;;;;12.70;nan;101013.47;5041647;28;19917;-83
2023/05/02 06:28:47;;;;;;;;;;;;;;;12.73;nan;101018.50;5024020;28;19987;-83
2023/05/02 06:31:12;;;;;;;;;;;;;;;12.88;nan;101019.59;5056516;28;19922;-85
2023/05/02 06:33:37;;;;;;;;;;;;;;;12.92;nan;101018.31;5039279;28;19996;-84
2023/05/02 06:36:03;;;;;;;;;;;;;;;13.05;nan;101017.06;5035509;28;19927;-83
2023/05/02 06:38:28;;;;;;;;;;;;;;;13.12;nan;101020.75;5039720;28;19932;-83
2023/05/02 06:40:53;;;;;;;;;;;;;;;13.35;nan;101029.06;5041789;28;19956;-83
2023/05/02 06:43:18;;;;;;;;;;;;;;;13.58;nan;101031.97;5040286;28;19921;-83
2023/05/02 06:45:44;;;;;;;;;;;;;;;13.55;nan;101032.31;5037785;28;19941;-84
2023/05/02 06:48:09;;;;;;;;;;;;;;;13.52;nan;101036.13;5031207;28;20366;-83
2023/05/02 06:50:35;;;;;;;;;;;;;;;13.53;nan;101036.94;5041898;28;19971;-81
2023/05/02 06:53:00;;;;;;;;;;;;;;;13.53;nan;101045.75;5025123;28;20326;-80
2023/05/02 06:55:26;;;;;;;;;;;;;;;13.67;nan;101044.31;5040682;28;20512;-80
2023/05/02 06:57:52;;;;;;;;;;;;;;;14.00;nan;101053.25;5038169;28;19925;-80
2023/05/02 07:00:17;;;;;;;;;;;;;;;14.54;nan;101058.25;5041154;28;20020;-80
2023/05/02 07:02:43;;;;;;;;;;;;;;;14.89;nan;101053.56;5033681;28;19921;-80
2023/05/02 07:05:08;;;;;;;;;;;;;;;15.26;nan;101057.53;5037817;28;19921;-80
2023/05/02 07:07:33;;;;;;;;;;;;;;;15.44;nan;101055.50;5038668;28;19921;-81
2023/05/02 07:09:59;;;;;;;;;;;;;;;15.49;nan;101058.50;5032109;28;19921;-80
2023/05/02 07:12:25;;;;;;;;;;;;;;;15.39;nan;101060.50;5034154;28;19921;-81
2023/05/02 07:14:50;;;;;;;;;;;;;;;15.40;nan;101059.50;5037728;28;19941;-79
2023/05/02 07:17:16;;;;;;;;;;;;;;;15.47;nan;101063.16;5021625;28;19936;-80
2023/05/02 07:19:41;;;;;;;;;;;;;;;15.27;nan;101064.53;5039884;28;19947;-80
2023/05/02 07:22:08;;;;;;;;;;;;;;;15.10;nan;101058.41;5037226;28;19921;-80
2023/05/02 07:24:33;;;;;;;;;;;;;;;15.24;nan;101054.22;5039598;28;19921;-80
2023/05/02 07:26:59;;;;;;;;;;;;;;;15.54;nan;101057.13;5036881;28;19932;-80
2023/05/02 07:29:24;;;;;;;;;;;;;;;16.03;nan;101063.13;5033624;28;19925;-80
2023/05/02 07:31:50;;;;;;;;;;;;;;;16.76;nan;101061.84;5040314;28;19949;-80
2023/05/02 07:34:15;;;;;;;;;;;;;;;17.34;nan;101061.34;5035990;28;19932;-80
2023/05/02 07:36:40;;;;;;;;;;;;;;;17.55;nan;101064.13;5036521;28;19996;-81
2023/05/02 07:39:06;;;;;;;;;;;;;;;17.39;nan;101056.28;5035047;28;19921;-80
2023/05/02 07:41:31;;;;;;;;;;;;;;;17.20;nan;101063.81;5037842;28;19921;-81
2023/05/02 07:43:56;;;;;;;;;;;;;;;17.53;nan;101058.13;5036248;28;19926;-80
2023/05/02 07:46:23;;;;;;;;;;;;;;;18.08;nan;101055.97;5036368;28;20391;-80
2023/05/02 07:48:48;;;;;;;;;;;;;;;18.52;nan;101059.50;5035274;28;19977;-81
2023/05/02 07:51:14;;;;;;;;;;;;;;;18.72;nan;101057.03;5033878;28;19922;-81
2023/05/02 07:53:39;;;;;;;;;;;;;;;18.80;nan;101055.06;5031979;28;20401;-80
2023/05/02 07:56:06;;;;;;;;;;;;;;;18.82;nan;101058.38;5024859;28;20620;-81
2023/05/02 07:58:31;;;;;;;;;;;;;;;18.67;nan;101063.81;5034540;28;19929;-81
2023/05/02 08:00:56;;;;;;;;;;;;;;;18.86;nan;101065.03;5030482;28;19921;-81
2023/05/02 08:03:21;;;;;;;;;;;;;;;19.22;nan;101064.06;5037422;28;19921;-81
2023/05/02 08:05:47;;;;;;;;;;;;;;;19.57;nan;101068.59;5036982;28;19921;-80
2023/05/02 08:08:12;;;;;;;;;;;;;;;19.33;nan;101070.75;5034701;28;20409;-80
2023/05/02 08:10:37;;;;;;;;;;;;;;;18.99;nan;101079.56;5028473;28;19928;-81
2023/05/02 08:13:03;;;;;;;;;;;;;;;19.25;nan;101076.25;5027626;28;19997;-80
2023/05/02 08:15:29;;;;;;;;;;;;;;;19.40;nan;101078.81;5047518;28;19925;-81
2023/05/02 08:17:54;;;;;;;;;;;;;;;19.45;nan;101081.75;5034042;28;19972;-80
2023/05/02 08:20:21;;;;;;;;;;;;;;;19.21;nan;101085.69;5031376;28;19921;-80
2023/05/02 08:22:46;;;;;;;;;;;;;;;18.99;nan;101079.56;5032275;28;20004;-81
2023/05/02 08:25:11;;;;;;;;;;;;;;;18.70;nan;101084.00;5034375;28;20003;-82
2023/05/02 08:27:36;;;;;;;;;;;;;;;18.38;nan;101080.81;5036724;28;19953;-79
2023/05/02 08:30:05;;;;;;;;;;;;;;;18.69;nan;101082.38;5038911;28;19921;-80
2023/05/02 08:32:31;;;;;;;;;;;;;;;19.12;nan;101086.91;5030688;28;19921;-79
2023/05/02 08:34:56;;;;;;;;;;;;;;;19.46;nan;101083.41;5021093;28;19996;-80
2023/05/02 08:37:22;;;;;;;;;;;;;;;20.19;nan;101088.31;5022444;28;20012;-80
2023/05/02 08:39:47;;;;;;;;;;;;;;;20.78;nan;101093.03;5016274;28;19921;-80
2023/05/02 08:42:12;;;;;;;;;;;;;;;19.92;nan;101093.59;5027806;28;19921;-80
2023/05/02 08:44:38;;;;;;;;;;;;;;;19.15;nan;101095.38;5021422;28;19921;-80
2023/05/02 08:47:05;;;;;;;;;;;;;;;18.82;nan;101100.44;5027242;28;19948;-80
2023/05/02 08:49:31;;;;;;;;;;;;;;;18.19;nan;101092.97;5025442;28;19933;-80
2023/05/02 08:51:58;;;;;;;;;;;;;;;17.81;nan;101097.63;5023940;28;19925;-80
2023/05/02 08:54:24;;;;;;;;;;;;;;;17.70;nan;101103.41;5029164;28;19932;-80
2023/05/02 08:56:51;;;;;;;;;;;;;;;17.49;nan;101104.94;5029706;28;20369;-80
2023/05/02 08:59:16;;;;;;;;;;;;;;;17.38;nan;101108.09;5022947;28;19925;-80
2023/05/02 09:01:44;;;;;;;;;;;;;;;17.21;nan;101115.44;5024364;28;19974;-80
2023/05/02 09:04:10;;;;;;;;;;;;;;;18.11;nan;101116.31;5021175;28;20388;-80
2023/05/02 09:06:35;;;;;;;;;;;;;;;18.72;nan;101119.47;5025723;28;19921;-81
2023/05/02 09:09:00;;;;;;;;;;;;;;;18.96;nan;101122.84;5024394;28;19928;-80
2023/05/02 09:11:25;;;;;;;;;;;;;;;18.82;nan;101120.03;5032002;28;20335;-81
2023/05/02 09:13:51;;;;;;;;;;;;;;;18.44;nan;101130.91;5044731;28;19922;-81
2023/05/02 09:16:16;;;;;;;;;;;;;;;18.01;nan;101136.16;5019337;28;19918;-80
2023/05/02 09:18:42;;;;;;;;;;;;;;;17.83;nan;101147.25;5032924;28;19939;-80
2023/05/02 09:21:12;;;;;;;;;;;;;;;17.34;nan;101136.19;5022630;28;20297;-80
2023/05/02 09:23:42;;;;;;;;;;;;;;;17.27;nan;101141.41;5028266;28;19964;-80
2023/05/02 09:26:11;;;;;;;;;;;;;;;17.15;nan;101145.53;5024927;28;19944;-80
2023/05/02 09:28:38;;;;;;;;;;;;;;;17.12;nan;101145.91;5037430;28;19944;-80
2023/05/02 09:31:08;;;;;;;;;;;;;;;17.09;nan;101155.13;5026104;28;19920;-80
2023/05/02 09:33:35;;;;;;;;;;;;;;;17.13;nan;101152.91;5035009;28;19921;-79
2023/05/02 09:36:00;;;;;;;;;;;;;;;17.22;nan;101146.47;5030429;28;19924;-82
2023/05/02 09:38:26;;;;;;;;;;;;;;;17.23;nan;101158.00;5035254;28;19940;-84
2023/05/02 09:40:55;;;;;;;;;;;;;;;17.40;nan;101148.84;5041721;28;19917;-80
2023/05/02 09:43:20;;;;;;;;;;;;;;;17.35;nan;101157.41;5036447;28;19929;-79
2023/05/02 09:45:55;;;;;;;;;;;;;;;17.39;nan;101165.88;5039781;28;19928;-78
2023/05/02 09:48:20;;;;;;;;;;;;;;;17.32;nan;101162.28;5034190;28;19922;-79
2023/05/02 09:50:45;;;;;;;;;;;;;;;17.22;nan;101162.53;5036187;28;19979;-79
2023/05/02 09:53:10;;;;;;;;;;;;;;;17.24;nan;101159.69;5037755;28;19944;-80
2023/05/02 09:55:36;;;;;;;;;;;;;;;17.22;nan;101167.03;5040109;28;19921;-79
2023/05/02 09:58:01;;;;;;;;;;;;;;;17.04;nan;101170.88;5040070;28;19961;-80
2023/05/02 10:00:42;;;;;;;;;;;;;;;17.19;nan;101163.72;5039161;28;20328;-81
2023/05/02 10:03:07;;;;;;;;;;;;;;;17.01;nan;101160.50;5032630;28;19921;-80
2023/05/02 10:05:35;;;;;;;;;;;;;;;17.02;nan;101170.19;5035027;28;19921;-81
2023/05/02 10:08:00;;;;;;;;;;;;;;;16.53;nan;101173.13;5039199;28;20393;-80
2023/05/02 10:10:28;;;;;;;;;;;;;;;16.53;nan;101173.97;5038188;28;19956;-79
2023/05/02 10:12:54;;;;;;;;;;;;;;;17.04;nan;101167.34;5039768;28;20381;-79
2023/05/02 10:15:21;;;;;;;;;;;;;;;17.25;nan;101174.69;5034408;28;19948;-79
2023/05/02 10:17:50;;;;;;;;;;;;;;;17.37;nan;101167.91;5032453;28;19921;-80
2023/05/02 10:20:21;;;;;;;;;;;;;;;18.04;nan;101165.25;5038422;28;20277;-80
2023/05/02 10:22:48;;;;;;;;;;;;;;;19.26;nan;101167.25;5036035;28;20011;-79
2023/05/02 10:25:13;;;;;;;;;;;;;;;20.00;nan;101165.91;5036920;28;19984;-80
2023/05/02 10:27:38;;;;;;;;;;;;;;;21.17;nan;101164.03;5034499;28;19971;-80
2023/05/02 10:30:05;;;;;;;;;;;;;;;22.29;nan;101161.41;5038899;28;19928;-80
2023/05/02 10:32:32;;;;;;;;;;;;;;;22.99;nan;101159.56;5036477;28;19951;-80
2023/05/02 10:35:01;;;;;;;;;;;;;;;22.73;nan;101160.53;5053059;28;19921;-81
2023/05/02 10:37:28;;;;;;;;;;;;;;;23.04;nan;101159.72;5038298;28;19929;-81
2023/05/02 10:39:53;;;;;;;;;;;;;;;23.64;nan;101158.38;5036042;28;19921;-81
2023/05/02 10:42:19;;;;;;;;;;;;;;;23.36;nan;101148.91;5038364;28;19943;-80
2023/05/02 10:44:45;;;;;;;;;;;;;;;24.13;nan;101151.25;5034103;28;19921;-81
2023/05/02 10:47:21;;;;;;;;;;;;;;;24.04;nan;101161.50;5036997;28;19947;-81
2023/05/02 10:49:51;;;;;;;;;;;;;;;23.85;nan;101159.88;5037995;28;19928;-81
2023/05/02 10:52:26;;;;;;;;;;;;;;;23.21;nan;101153.78;5035903;28;19925;-82
2023/05/02 10:54:51;;;;;;;;;;;;;;;23.22;nan;101148.19;5034429;28;19921;-80
2023/05/02 10:57:16;;;;;;;;;;;;;;;23.11;nan;101152.41;5028795;28;19940;-80
2023/05/02 10:59:42;;;;;;;;;;;;;;;24.35;nan;101152.41;5037565;28;20435;-81
2023/05/02 11:02:26;;;;;;;;;;;;;;;22.53;nan;101151.75;5037443;28;20016;-81
2023/05/02 11:05:04;;;;;;;;;;;;;;;21.03;nan;101147.03;5035360;28;20080;-79
2023/05/02 11:07:36;;;;;;;;;;;;;;;21.38;nan;101145.00;5038815;28;19928;-81
2023/05/02 11:10:16;;;;;;;;;;;;;;;22.63;nan;101149.41;5037899;28;19921;-81
2023/05/02 11:12:48;;;;;;;;;;;;;;;23.60;nan;101146.41;5032513;28;20002;-81
2023/05/02 11:15:14;;;;;;;;;;;;;;;24.64;nan;101147.25;5026694;28;20301;-81
2023/05/02 11:17:58;;;;;;;;;;;;;;;24.60;nan;101148.78;5029017;28;19968;-80
2023/05/02 11:20:24;;;;;;;;;;;;;;;23.24;nan;101153.34;5036070;28;19921;-81
2023/05/02 11:22:49;;;;;;;;;;;;;;;23.46;nan;101151.91;5038235;28;20004;-83
2023/05/02 11:25:28;;;;;;;;;;;;;;;23.59;nan;101147.44;5038336;28;20577;-82
2023/05/02 11:27:53;;;;;;;;;;;;;;;24.37;nan;101147.59;5018651;28;19959;-83
2023/05/02 11:30:42;;;;;;;;;;;;;;;23.22;nan;101147.38;5034889;28;19920;-83
2023/05/02 11:33:07;;;;;;;;;;;;;;;24.30;nan;101152.25;5023899;28;19921;-79
2023/05/02 11:35:34;;;;;;;;;;;;;;;24.74;nan;101154.81;5036630;28;19925;-79
2023/05/02 11:38:02;;;;;;;;;;;;;;;25.71;nan;101159.06;5032114;28;19965;-79
2023/05/02 11:40:28;;;;;;;;;;;;;;;26.39;nan;101152.94;5033539;28;19921;-78
2023/05/02 11:42:53;;;;;;;;;;;;;;;26.82;nan;101162.44;5029812;28;19943;-79
2023/05/02 11:45:19;;;;;;;;;;;;;;;26.83;nan;101155.94;5032042;28;19921;-79
2023/05/02 11:47:46;;;;;;;;;;;;;;;25.36;nan;101155.31;5034661;28;19928;-80
2023/05/02 11:50:11;;;;;;;;;;;;;;;24.65;nan;101148.91;5028807;28;19972;-81
2023/05/02 11:52:37;;;;;;;;;;;;;;;24.21;nan;101142.81;5035610;28;20026;-81
2023/05/02 11:55:05;;;;;;;;;;;;;;;25.22;nan;101143.06;5023223;28;19924;-81
2023/05/02 11:57:32;;;;;;;;;;;;;;;26.59;nan;101136.25;5035488;28;19921;-81
2023/05/02 11:59:57;;;;;;;;;;;;;;;27.17;nan;101131.50;5036965;28;19939;-82
2023/05/02 12:02:40;;;;;;;;;;;;;;;27.49;nan;101133.66;5036472;28;20004;-81
2023/05/02 12:05:12;;;;;;;;;;;;;;;26.17;nan;101135.66;5035126;28;19921;-81
2023/05/02 12:07:41;;;;;;;;;;;;;;;24.50;nan;101137.69;5027662;28;19921;-80
2023/05/02 12:10:07;;;;;;;;;;;;;;;23.26;nan;101130.53;5001886;28;19933;-78
2023/05/02 12:12:33;;;;;;;;;;;;;;;22.78;nan;101133.75;5033354;28;19922;-80
2023/05/02 12:15:02;;;;;;;;;;;;;;;21.91;nan;101127.94;5034732;28;19929;-83
2023/05/02 12:17:28;;;;;;;;;;;;;;;21.42;nan;101148.91;5034844;28;19925;-82
2023/05/02 12:19:54;;;;;;;;;;;;;;;21.49;nan;101145.41;5035126;28;21738;-82
2023/05/02 12:22:19;;;;;;;;;;;;;;;21.47;nan;101147.47;5027304;28;19944;-82
2023/05/02 12:24:45;;;;;;;;;;;;;;;21.46;nan;101148.53;5031758;28;20650;-82
2023/05/02 12:27:12;;;;;;;;;;;;;;;21.44;nan;101153.28;5034606;28;19956;-82
2023/05/02 12:29:40;;;;;;;;;;;;;;;21.16;nan;101163.16;5030797;28;20537;-82
2023/05/02 12:32:06;;;;;;;;;;;;;;;20.74;nan;101161.69;5033010;28;19932;-82
2023/05/02 12:34:34;;;;;;;;;;;;;;;20.12;nan;101156.28;5034318;28;19921;-82
2023/05/02 12:37:02;;;;;;;;;;;;;;;20.13;nan;101154.41;5026861;28;19995;-84
2023/05/02 12:39:38;;;;;;;;;;;;;;;20.03;nan;101157.47;5032556;28;19921;-85
2023/05/02 12:42:13;;;;;;;;;;;;;;;20.09;nan;101150.47;5034314;28;20018;-84
2023/05/02 12:44:39;;;;;;;;;;;;;;;20.17;nan;101147.63;5033796;28;19944;-83
2023/05/02 12:47:05;;;;;;;;;;;;;;;20.36;nan;101149.56;5033197;28;19929;-83
2023/05/02 12:49:31;;;;;;;;;;;;;;;20.63;nan;101152.34;5031943;28;20325;-81
2023/05/02 12:51:57;;;;;;;;;;;;;;;20.83;nan;101148.88;5026889;28;19925;-79
2023/05/02 12:54:22;;;;;;;;;;;;;;;20.97;nan;101148.72;5039600;28;19928;-85
2023/05/02 12:56:50;;;;;;;;;;;;;;;21.03;nan;101138.16;5028940;28;19932;-86
2023/05/02 12:59:25;;;;;;;;;;;;;;;21.12;nan;101140.44;5032508;28;19924;-85
2023/05/02 13:01:50;;;;;;;;;;;;;;;20.83;nan;101141.63;5035460;28;19921;-82
2023/05/02 13:04:16;;;;;;;;;;;;;;;20.70;nan;101145.13;5027863;28;20025;-82
2023/05/02 13:06:41;;;;;;;;;;;;;;;20.94;nan;101143.72;5034339;28;19943;-82
2023/05/02 13:09:06;;;;;;;;;;;;;;;21.39;nan;101138.59;5037084;28;19925;-81
2023/05/02 13:11:31;;;;;;;;;;;;;;;21.60;nan;101139.41;5037284;28;20367;-82
2023/05/02 13:13:59;;;;;;;;;;;;;;;21.26;nan;101145.78;5034134;28;19921;-82
2023/05/02 13:16:24;;;;;;;;;;;;;;;20.93;nan;101143.94;5036407;28;19971;-81
2023/05/02 13:18:50;;;;;;;;;;;;;;;20.60;nan;101138.50;5033663;28;20373;-82
2023/05/02 13:21:15;;;;;;;;;;;;;;;20.47;nan;101134.69;5034737;28;19925;-81
2023/05/02 13:23:40;;;;;;;;;;;;;;;20.44;nan;101132.41;5036231;28;19947;-81
2023/05/02 13:26:05;;;;;;;;;;;;;;;20.22;nan;101136.28;5049302;28;19921;-81
2023/05/02 13:28:34;;;;;;;;;;;;;;;19.87;nan;101136.31;5031559;28;20000;-81
2023/05/02 13:31:00;;;;;;;;;;;;;;;19.77;nan;101131.31;5033060;28;19933;-81
2023/05/02 13:33:25;;;;;;;;;;;;;;;19.76;nan;101131.50;5035702;28;20596;-80